sensor_id;sensor_type;location;lat;lon;timestamp;temperature;humidity
37460;DHT22;23318;50.966;5.284;2022-12-18T00:00:28;-4.20;99.90
37460;DHT22;23318;50.966;5.284;2022-12-18T00:02:53;-4.30;99.90
37460;DHT22;23318;50.966;5.284;2022-12-18T00:05:19;-4.20;99.90
37460;DHT22;23318;50.966;5.284;2022-12-18T00:07:44;-4.30;99.90
37460;DHT22;23318;50.966;5.284;2022-12-18T00:10:10;-4.30;99.90
37460;DHT22;23318;50.966;5.284;2022-12-18T00:12:35;-4.40;99.90
37460;DHT22;23318;50.966;5.284;2022-12-18T00:15:01;-4.40;99.90
37460;DHT22;23318;50.966;5.284;2022-12-18T00:17:27;-4.40;99.90
37460;DHT22;23318;50.966;5.284;2022-12-18T00:19:52;-4.60;99.90
37460;DHT22;23318;50.966;5.284;2022-12-18T00:22:18;-4.50;99.90
37460;DHT22;23318;50.966;5.284;2022-12-18T00:24:44;-4.50;99.90
37460;DHT22;23318;50.966;5.284;2022-12-18T00:27:09;-4.50;99.90
37460;DHT22;23318;50.966;5.284;2022-12-18T00:29:35;-4.60;99.90
37460;DHT22;23318;50.966;5.284;2022-12-18T00:32:01;-4.60;99.90
37460;DHT22;23318;50.966;5.284;2022-12-18T00:34:26;-4.60;99.90
37460;DHT22;23318;50.966;5.284;2022-12-18T00:36:52;-4.70;99.90
37460;DHT22;23318;50.966;5.284;2022-12-18T00:39:17;-4.80;99.90
37460;DHT22;23318;50.966;5.284;2022-12-18T00:41:43;-4.80;99.90
37460;DHT22;23318;50.966;5.284;2022-12-18T00:44:27;-5.00;99.90
37460;DHT22;23318;50.966;5.284;2022-12-18T00:46:53;-5.00;99.90
37460;DHT22;23318;50.966;5.284;2022-12-18T00:49:19;-5.00;99.90
37460;DHT22;23318;50.966;5.284;2022-12-18T00:51:45;-5.00;99.90
37460;DHT22;23318;50.966;5.284;2022-12-18T00:54:11;-4.90;99.90
37460;DHT22;23318;50.966;5.284;2022-12-18T00:56:38;-4.90;99.90
37460;DHT22;23318;50.966;5.284;2022-12-18T00:59:04;-4.90;99.90
37460;DHT22;23318;50.966;5.284;2022-12-18T01:01:30;-4.90;99.90
37460;DHT22;23318;50.966;5.284;2022-12-18T01:03:56;-4.80;99.90
37460;DHT22;23318;50.966;5.284;2022-12-18T01:06:22;-4.80;99.90
37460;DHT22;23318;50.966;5.284;2022-12-18T01:08:47;-4.70;99.90
37460;DHT22;23318;50.966;5.284;2022-12-18T01:11:18;-4.80;99.90
37460;DHT22;23318;50.966;5.284;2022-12-18T01:13:44;-4.80;99.90
37460;DHT22;23318;50.966;5.284;2022-12-18T01:16:14;-4.80;99.90
37460;DHT22;23318;50.966;5.284;2022-12-18T01:18:40;-4.90;99.90
37460;DHT22;23318;50.966;5.284;2022-12-18T01:21:11;-5.00;99.90
37460;DHT22;23318;50.966;5.284;2022-12-18T01:23:37;-5.00;99.90
37460;DHT22;23318;50.966;5.284;2022-12-18T01:26:12;-5.10;99.90
37460;DHT22;23318;50.966;5.284;2022-12-18T01:28:39;-5.10;99.90
37460;DHT22;23318;50.966;5.284;2022-12-18T01:31:11;-5.10;99.90
37460;DHT22;23318;50.966;5.284;2022-12-18T01:33:37;-5.10;99.90
37460;DHT22;23318;50.966;5.284;2022-12-18T01:36:03;-5.00;99.90
37460;DHT22;23318;50.966;5.284;2022-12-18T01:38:29;-5.10;99.90
37460;DHT22;23318;50.966;5.284;2022-12-18T01:41:01;-5.00;99.90
37460;DHT22;23318;50.966;5.284;2022-12-18T01:43:51;-5.00;99.90
37460;DHT22;23318;50.966;5.284;2022-12-18T01:46:19;-5.00;99.90
37460;DHT22;23318;50.966;5.284;2022-12-18T01:48:47;-5.00;99.90
37460;DHT22;23318;50.966;5.284;2022-12-18T01:51:13;-5.10;99.90
37460;DHT22;23318;50.966;5.284;2022-12-18T01:53:41;-5.10;99.90
37460;DHT22;23318;50.966;5.284;2022-12-18T01:56:07;-5.10;99.90
37460;DHT22;23318;50.966;5.284;2022-12-18T01:58:55;-5.20;99.90
37460;DHT22;23318;50.966;5.284;2022-12-18T02:01:23;-5.20;99.90
37460;DHT22;23318;50.966;5.284;2022-12-18T02:03:50;-5.30;99.90
37460;DHT22;23318;50.966;5.284;2022-12-18T02:06:26;-5.30;99.90
37460;DHT22;23318;50.966;5.284;2022-12-18T02:09:14;-5.40;99.90
37460;DHT22;23318;50.966;5.284;2022-12-18T02:12:14;-5.50;99.90
37460;DHT22;23318;50.966;5.284;2022-12-18T02:14:55;-5.40;99.90
37460;DHT22;23318;50.966;5.284;2022-12-18T02:17:31;-5.30;99.90
37460;DHT22;23318;50.966;5.284;2022-12-18T02:28:09;-5.40;99.90
37460;DHT22;23318;50.966;5.284;2022-12-18T02:30:39;-5.50;99.90
37460;DHT22;23318;50.966;5.284;2022-12-18T02:33:07;-5.40;99.90
37460;DHT22;23318;50.966;5.284;2022-12-18T02:35:34;-5.40;99.90
37460;DHT22;23318;50.966;5.284;2022-12-18T02:38:02;-5.30;99.90
37460;DHT22;23318;50.966;5.284;2022-12-18T02:40:29;-5.20;99.90
37460;DHT22;23318;50.966;5.284;2022-12-18T02:42:55;-5.20;99.90
37460;DHT22;23318;50.966;5.284;2022-12-18T02:45:21;-5.50;99.90
37460;DHT22;23318;50.966;5.284;2022-12-18T02:47:48;-5.50;99.90
37460;DHT22;23318;50.966;5.284;2022-12-18T02:50:31;-5.60;99.90
37460;DHT22;23318;50.966;5.284;2022-12-18T02:58:47;-5.40;99.90
37460;DHT22;23318;50.966;5.284;2022-12-18T03:01:28;-5.40;99.90
37460;DHT22;23318;50.966;5.284;2022-12-18T03:04:01;-5.50;99.90
37460;DHT22;23318;50.966;5.284;2022-12-18T03:06:32;-5.40;99.90
37460;DHT22;23318;50.966;5.284;2022-12-18T03:09:07;-5.30;99.90
37460;DHT22;23318;50.966;5.284;2022-12-18T03:11:37;-5.30;99.90
37460;DHT22;23318;50.966;5.284;2022-12-18T03:14:38;-5.30;99.90
37460;DHT22;23318;50.966;5.284;2022-12-18T03:17:10;-5.30;99.90
37460;DHT22;23318;50.966;5.284;2022-12-18T03:19:36;-5.30;99.90
37460;DHT22;23318;50.966;5.284;2022-12-18T03:22:05;-5.40;99.90
37460;DHT22;23318;50.966;5.284;2022-12-18T03:24:33;-5.40;99.90
37460;DHT22;23318;50.966;5.284;2022-12-18T03:27:06;-5.50;99.90
37460;DHT22;23318;50.966;5.284;2022-12-18T03:29:42;-5.50;99.90
37460;DHT22;23318;50.966;5.284;2022-12-18T03:32:18;-5.50;99.90
37460;DHT22;23318;50.966;5.284;2022-12-18T03:34:49;-5.60;99.90
37460;DHT22;23318;50.966;5.284;2022-12-18T03:37:16;-5.60;99.90
37460;DHT22;23318;50.966;5.284;2022-12-18T03:39:41;-5.60;99.90
37460;DHT22;23318;50.966;5.284;2022-12-18T03:42:14;-5.50;99.90
37460;DHT22;23318;50.966;5.284;2022-12-18T03:47:21;-5.60;99.90
37460;DHT22;23318;50.966;5.284;2022-12-18T03:55:19;-5.80;99.90
37460;DHT22;23318;50.966;5.284;2022-12-18T03:57:47;-5.80;99.90
37460;DHT22;23318;50.966;5.284;2022-12-18T04:00:15;-5.70;99.90
37460;DHT22;23318;50.966;5.284;2022-12-18T04:02:49;-5.70;99.90
37460;DHT22;23318;50.966;5.284;2022-12-18T04:05:17;-5.70;99.90
37460;DHT22;23318;50.966;5.284;2022-12-18T04:07:45;-5.70;99.90
37460;DHT22;23318;50.966;5.284;2022-12-18T04:10:12;-5.70;99.90
37460;DHT22;23318;50.966;5.284;2022-12-18T04:12:39;-5.70;99.90
37460;DHT22;23318;50.966;5.284;2022-12-18T04:15:06;-5.60;99.90
37460;DHT22;23318;50.966;5.284;2022-12-18T04:17:32;-5.70;99.90
37460;DHT22;23318;50.966;5.284;2022-12-18T04:19:57;-5.60;99.90
37460;DHT22;23318;50.966;5.284;2022-12-18T04:22:23;-5.60;99.90
37460;DHT22;23318;50.966;5.284;2022-12-18T04:24:49;-5.60;99.90
37460;DHT22;23318;50.966;5.284;2022-12-18T04:27:14;-5.60;99.90
37460;DHT22;23318;50.966;5.284;2022-12-18T04:29:40;-5.70;99.90
37460;DHT22;23318;50.966;5.284;2022-12-18T04:32:06;-5.60;99.90
37460;DHT22;23318;50.966;5.284;2022-12-18T04:34:32;-5.60;99.90
37460;DHT22;23318;50.966;5.284;2022-12-18T04:36:57;-5.60;99.90
37460;DHT22;23318;50.966;5.284;2022-12-18T04:39:23;-5.70;99.90
37460;DHT22;23318;50.966;5.284;2022-12-18T04:41:49;-5.80;99.90
37460;DHT22;23318;50.966;5.284;2022-12-18T04:44:15;-5.80;99.90
37460;DHT22;23318;50.966;5.284;2022-12-18T04:46:41;-5.80;99.90
37460;DHT22;23318;50.966;5.284;2022-12-18T04:49:07;-5.80;99.90
37460;DHT22;23318;50.966;5.284;2022-12-18T04:51:32;-5.70;99.90
37460;DHT22;23318;50.966;5.284;2022-12-18T04:53:58;-5.70;99.90
37460;DHT22;23318;50.966;5.284;2022-12-18T04:56:25;-5.70;99.90
37460;DHT22;23318;50.966;5.284;2022-12-18T04:58:50;-5.70;99.90
37460;DHT22;23318;50.966;5.284;2022-12-18T05:01:17;-5.80;99.90
37460;DHT22;23318;50.966;5.284;2022-12-18T05:03:43;-5.80;99.90
37460;DHT22;23318;50.966;5.284;2022-12-18T05:06:09;-5.90;99.90
37460;DHT22;23318;50.966;5.284;2022-12-18T05:08:35;-6.00;99.90
37460;DHT22;23318;50.966;5.284;2022-12-18T05:11:09;-6.00;99.90
37460;DHT22;23318;50.966;5.284;2022-12-18T05:13:36;-6.10;99.90
37460;DHT22;23318;50.966;5.284;2022-12-18T05:16:03;-6.10;99.90
37460;DHT22;23318;50.966;5.284;2022-12-18T05:18:29;-6.00;99.90
37460;DHT22;23318;50.966;5.284;2022-12-18T05:20:55;-6.00;99.90
37460;DHT22;23318;50.966;5.284;2022-12-18T05:23:22;-6.10;99.90
37460;DHT22;23318;50.966;5.284;2022-12-18T05:25:59;-6.10;99.90
37460;DHT22;23318;50.966;5.284;2022-12-18T05:28:27;-6.20;99.90
37460;DHT22;23318;50.966;5.284;2022-12-18T05:30:55;-6.20;99.90
37460;DHT22;23318;50.966;5.284;2022-12-18T05:33:22;-6.20;99.90
37460;DHT22;23318;50.966;5.284;2022-12-18T05:35:59;-6.20;99.90
37460;DHT22;23318;50.966;5.284;2022-12-18T05:38:26;-6.20;99.90
37460;DHT22;23318;50.966;5.284;2022-12-18T05:40:53;-6.10;99.90
37460;DHT22;23318;50.966;5.284;2022-12-18T05:43:19;-6.10;99.90
37460;DHT22;23318;50.966;5.284;2022-12-18T05:45:46;-6.10;99.90
37460;DHT22;23318;50.966;5.284;2022-12-18T05:48:11;-6.00;99.90
37460;DHT22;23318;50.966;5.284;2022-12-18T05:50:38;-5.90;99.90
37460;DHT22;23318;50.966;5.284;2022-12-18T05:53:05;-6.00;99.90
37460;DHT22;23318;50.966;5.284;2022-12-18T05:55:35;-6.00;99.90
37460;DHT22;23318;50.966;5.284;2022-12-18T05:58:02;-6.00;99.90
37460;DHT22;23318;50.966;5.284;2022-12-18T06:00:28;-6.00;99.90
37460;DHT22;23318;50.966;5.284;2022-12-18T06:02:53;-6.00;99.90
37460;DHT22;23318;50.966;5.284;2022-12-18T06:05:19;-5.90;99.90
37460;DHT22;23318;50.966;5.284;2022-12-18T06:07:44;-5.80;99.90
37460;DHT22;23318;50.966;5.284;2022-12-18T06:10:10;-6.00;99.90
37460;DHT22;23318;50.966;5.284;2022-12-18T06:12:37;-6.00;99.90
37460;DHT22;23318;50.966;5.284;2022-12-18T06:15:03;-6.10;99.90
37460;DHT22;23318;50.966;5.284;2022-12-18T06:17:32;-6.10;99.90
37460;DHT22;23318;50.966;5.284;2022-12-18T06:19:59;-6.10;99.90
37460;DHT22;23318;50.966;5.284;2022-12-18T06:22:24;-6.10;99.90
37460;DHT22;23318;50.966;5.284;2022-12-18T06:24:50;-6.10;99.90
37460;DHT22;23318;50.966;5.284;2022-12-18T06:27:16;-6.10;99.90
37460;DHT22;23318;50.966;5.284;2022-12-18T06:29:42;-6.10;99.90
37460;DHT22;23318;50.966;5.284;2022-12-18T06:32:08;-6.50;99.90
37460;DHT22;23318;50.966;5.284;2022-12-18T06:34:34;-6.30;99.90
37460;DHT22;23318;50.966;5.284;2022-12-18T06:37:00;-6.20;99.90
37460;DHT22;23318;50.966;5.284;2022-12-18T06:39:27;-6.00;99.90
37460;DHT22;23318;50.966;5.284;2022-12-18T06:41:53;-5.90;99.90
37460;DHT22;23318;50.966;5.284;2022-12-18T06:44:19;-6.00;99.90
37460;DHT22;23318;50.966;5.284;2022-12-18T06:46:45;-6.10;99.90
37460;DHT22;23318;50.966;5.284;2022-12-18T06:49:11;-6.10;99.90
37460;DHT22;23318;50.966;5.284;2022-12-18T06:51:36;-6.10;99.90
37460;DHT22;23318;50.966;5.284;2022-12-18T06:54:02;-6.20;99.90
37460;DHT22;23318;50.966;5.284;2022-12-18T06:56:28;-6.20;99.90
37460;DHT22;23318;50.966;5.284;2022-12-18T06:58:54;-6.10;99.90
37460;DHT22;23318;50.966;5.284;2022-12-18T07:01:21;-6.00;99.90
37460;DHT22;23318;50.966;5.284;2022-12-18T07:03:47;-5.80;99.90
37460;DHT22;23318;50.966;5.284;2022-12-18T07:06:18;-5.80;99.90
37460;DHT22;23318;50.966;5.284;2022-12-18T07:08:45;-5.80;99.90
37460;DHT22;23318;50.966;5.284;2022-12-18T07:11:11;-5.70;99.90
37460;DHT22;23318;50.966;5.284;2022-12-18T07:13:37;-5.80;99.90
37460;DHT22;23318;50.966;5.284;2022-12-18T07:16:17;-5.80;99.90
37460;DHT22;23318;50.966;5.284;2022-12-18T07:18:43;-6.10;99.90
37460;DHT22;23318;50.966;5.284;2022-12-18T07:21:12;-6.10;99.90
37460;DHT22;23318;50.966;5.284;2022-12-18T07:23:38;-6.10;99.90
37460;DHT22;23318;50.966;5.284;2022-12-18T07:26:09;-6.20;99.90
37460;DHT22;23318;50.966;5.284;2022-12-18T07:28:36;-6.30;99.90
37460;DHT22;23318;50.966;5.284;2022-12-18T07:31:06;-6.40;99.90
37460;DHT22;23318;50.966;5.284;2022-12-18T07:33:33;-6.50;99.90
37460;DHT22;23318;50.966;5.284;2022-12-18T07:36:00;-6.60;99.90
37460;DHT22;23318;50.966;5.284;2022-12-18T07:38:25;-6.40;99.90
37460;DHT22;23318;50.966;5.284;2022-12-18T07:40:51;-6.20;99.90
37460;DHT22;23318;50.966;5.284;2022-12-18T07:43:17;-6.10;99.90
37460;DHT22;23318;50.966;5.284;2022-12-18T07:45:43;-6.20;99.90
37460;DHT22;23318;50.966;5.284;2022-12-18T07:48:09;-6.10;99.90
37460;DHT22;23318;50.966;5.284;2022-12-18T07:50:34;-6.00;99.90
37460;DHT22;23318;50.966;5.284;2022-12-18T07:53:00;-6.00;99.90
37460;DHT22;23318;50.966;5.284;2022-12-18T07:55:29;-6.10;99.90
37460;DHT22;23318;50.966;5.284;2022-12-18T07:57:56;-6.20;99.90
37460;DHT22;23318;50.966;5.284;2022-12-18T08:00:21;-6.30;99.90
37460;DHT22;23318;50.966;5.284;2022-12-18T08:02:47;-6.10;99.90
37460;DHT22;23318;50.966;5.284;2022-12-18T08:05:13;-6.10;99.90
37460;DHT22;23318;50.966;5.284;2022-12-18T08:07:39;-6.10;99.90
37460;DHT22;23318;50.966;5.284;2022-12-18T08:10:05;-6.00;99.90
37460;DHT22;23318;50.966;5.284;2022-12-18T08:12:31;-5.80;99.90
37460;DHT22;23318;50.966;5.284;2022-12-18T08:14:57;-5.80;99.90
37460;DHT22;23318;50.966;5.284;2022-12-18T08:17:22;-5.70;99.90
37460;DHT22;23318;50.966;5.284;2022-12-18T08:19:48;-5.80;99.90
37460;DHT22;23318;50.966;5.284;2022-12-18T08:22:14;-5.50;99.90
37460;DHT22;23318;50.966;5.284;2022-12-18T08:24:39;-5.30;99.90
37460;DHT22;23318;50.966;5.284;2022-12-18T08:27:05;-5.30;99.90
37460;DHT22;23318;50.966;5.284;2022-12-18T08:29:30;-5.40;99.90
37460;DHT22;23318;50.966;5.284;2022-12-18T08:31:57;-5.10;99.90
37460;DHT22;23318;50.966;5.284;2022-12-18T08:34:23;-5.00;99.90
37460;DHT22;23318;50.966;5.284;2022-12-18T08:36:49;-4.90;99.90
37460;DHT22;23318;50.966;5.284;2022-12-18T08:39:14;-4.90;99.90
37460;DHT22;23318;50.966;5.284;2022-12-18T08:41:40;-4.80;99.90
37460;DHT22;23318;50.966;5.284;2022-12-18T08:44:07;-4.80;99.90
37460;DHT22;23318;50.966;5.284;2022-12-18T08:46:51;-4.60;99.90
37460;DHT22;23318;50.966;5.284;2022-12-18T08:49:18;-4.80;99.90
37460;DHT22;23318;50.966;5.284;2022-12-18T08:51:43;-4.70;99.90
37460;DHT22;23318;50.966;5.284;2022-12-18T08:54:11;-4.60;99.90
37460;DHT22;23318;50.966;5.284;2022-12-18T08:56:38;-4.50;99.90
37460;DHT22;23318;50.966;5.284;2022-12-18T08:59:03;-4.40;99.90
37460;DHT22;23318;50.966;5.284;2022-12-18T09:01:29;-4.30;99.90
37460;DHT22;23318;50.966;5.284;2022-12-18T09:03:55;-4.30;99.90
37460;DHT22;23318;50.966;5.284;2022-12-18T09:06:22;-4.20;99.90
37460;DHT22;23318;50.966;5.284;2022-12-18T09:08:48;-4.20;99.90
37460;DHT22;23318;50.966;5.284;2022-12-18T09:11:25;-4.10;99.90
37460;DHT22;23318;50.966;5.284;2022-12-18T09:13:51;-3.90;99.90
37460;DHT22;23318;50.966;5.284;2022-12-18T09:16:17;-3.80;99.90
37460;DHT22;23318;50.966;5.284;2022-12-18T09:18:43;-3.60;99.90
37460;DHT22;23318;50.966;5.284;2022-12-18T09:21:11;-3.50;99.90
37460;DHT22;23318;50.966;5.284;2022-12-18T09:23:37;-3.40;99.90
37460;DHT22;23318;50.966;5.284;2022-12-18T09:26:02;-3.30;99.90
37460;DHT22;23318;50.966;5.284;2022-12-18T09:28:28;-3.20;99.90
37460;DHT22;23318;50.966;5.284;2022-12-18T09:30:54;-3.10;99.90
37460;DHT22;23318;50.966;5.284;2022-12-18T09:33:19;-3.10;99.90
37460;DHT22;23318;50.966;5.284;2022-12-18T09:35:45;-3.20;99.90
37460;DHT22;23318;50.966;5.284;2022-12-18T09:38:13;-3.20;99.90
37460;DHT22;23318;50.966;5.284;2022-12-18T09:40:48;-3.10;99.90
37460;DHT22;23318;50.966;5.284;2022-12-18T09:43:28;-3.00;99.90
37460;DHT22;23318;50.966;5.284;2022-12-18T09:45:59;-2.90;99.90
37460;DHT22;23318;50.966;5.284;2022-12-18T09:48:49;-2.60;99.90
37460;DHT22;23318;50.966;5.284;2022-12-18T09:51:28;-2.40;99.90
37460;DHT22;23318;50.966;5.284;2022-12-18T09:54:03;-2.10;99.90
37460;DHT22;23318;50.966;5.284;2022-12-18T09:56:35;-1.90;99.90
37460;DHT22;23318;50.966;5.284;2022-12-18T09:59:03;-1.80;99.90
37460;DHT22;23318;50.966;5.284;2022-12-18T10:01:31;-1.90;99.90
37460;DHT22;23318;50.966;5.284;2022-12-18T10:03:57;-1.70;99.90
37460;DHT22;23318;50.966;5.284;2022-12-18T10:09:14;-1.30;99.90
37460;DHT22;23318;50.966;5.284;2022-12-18T10:11:55;-1.30;99.90
37460;DHT22;23318;50.966;5.284;2022-12-18T10:20:34;-1.40;99.90
37460;DHT22;23318;50.966;5.284;2022-12-18T10:28:26;-0.90;99.90
37460;DHT22;23318;50.966;5.284;2022-12-18T10:30:54;-0.70;99.90
37460;DHT22;23318;50.966;5.284;2022-12-18T10:33:22;-0.70;99.90
37460;DHT22;23318;50.966;5.284;2022-12-18T10:35:50;-0.70;99.90
37460;DHT22;23318;50.966;5.284;2022-12-18T10:43:28;-0.30;99.90
37460;DHT22;23318;50.966;5.284;2022-12-18T10:51:07;-0.20;99.90
37460;DHT22;23318;50.966;5.284;2022-12-18T10:53:36;-0.20;99.90
37460;DHT22;23318;50.966;5.284;2022-12-18T10:56:04;-0.30;99.90
37460;DHT22;23318;50.966;5.284;2022-12-18T10:58:33;-0.30;99.90
37460;DHT22;23318;50.966;5.284;2022-12-18T11:03:43;-0.30;99.90
37460;DHT22;23318;50.966;5.284;2022-12-18T11:06:14;-0.20;99.90
37460;DHT22;23318;50.966;5.284;2022-12-18T11:08:41;-0.20;99.90
37460;DHT22;23318;50.966;5.284;2022-12-18T11:11:22;-0.10;99.90
37460;DHT22;23318;50.966;5.284;2022-12-18T11:14:06;-0.10;99.90
37460;DHT22;23318;50.966;5.284;2022-12-18T11:16:46;0.10;99.90
37460;DHT22;23318;50.966;5.284;2022-12-18T11:19:34;0.30;99.90
37460;DHT22;23318;50.966;5.284;2022-12-18T11:22:02;0.30;99.90
37460;DHT22;23318;50.966;5.284;2022-12-18T11:24:34;0.50;99.90
37460;DHT22;23318;50.966;5.284;2022-12-18T11:27:02;0.50;99.90
37460;DHT22;23318;50.966;5.284;2022-12-18T11:29:39;0.70;99.90
37460;DHT22;23318;50.966;5.284;2022-12-18T11:32:35;0.80;99.90
37460;DHT22;23318;50.966;5.284;2022-12-18T11:35:19;0.90;99.90
37460;DHT22;23318;50.966;5.284;2022-12-18T11:37:54;1.00;99.90
37460;DHT22;23318;50.966;5.284;2022-12-18T11:40:33;1.10;99.90
37460;DHT22;23318;50.966;5.284;2022-12-18T11:43:23;1.20;99.90
37460;DHT22;23318;50.966;5.284;2022-12-18T11:46:13;1.30;99.90
37460;DHT22;23318;50.966;5.284;2022-12-18T11:48:45;1.40;99.90
37460;DHT22;23318;50.966;5.284;2022-12-18T11:51:20;1.50;99.90
37460;DHT22;23318;50.966;5.284;2022-12-18T11:53:48;1.50;99.90
37460;DHT22;23318;50.966;5.284;2022-12-18T11:56:32;1.50;99.90
37460;DHT22;23318;50.966;5.284;2022-12-18T12:08:09;1.80;99.90
37460;DHT22;23318;50.966;5.284;2022-12-18T12:10:51;1.90;99.90
37460;DHT22;23318;50.966;5.284;2022-12-18T12:13:28;2.00;99.90
37460;DHT22;23318;50.966;5.284;2022-12-18T12:18:44;1.90;99.90
37460;DHT22;23318;50.966;5.284;2022-12-18T12:29:45;1.90;99.90
37460;DHT22;23318;50.966;5.284;2022-12-18T12:35:29;2.10;99.90
37460;DHT22;23318;50.966;5.284;2022-12-18T12:40:31;2.30;99.90
37460;DHT22;23318;50.966;5.284;2022-12-18T12:43:03;2.30;99.90
37460;DHT22;23318;50.966;5.284;2022-12-18T12:45:41;2.40;99.90
37460;DHT22;23318;50.966;5.284;2022-12-18T12:48:15;2.50;99.90
37460;DHT22;23318;50.966;5.284;2022-12-18T12:50:42;2.50;99.90
37460;DHT22;23318;50.966;5.284;2022-12-18T12:53:09;2.60;99.90
37460;DHT22;23318;50.966;5.284;2022-12-18T12:55:41;2.80;99.90
37460;DHT22;23318;50.966;5.284;2022-12-18T13:01:08;2.90;99.90
37460;DHT22;23318;50.966;5.284;2022-12-18T13:09:09;3.10;99.90
37460;DHT22;23318;50.966;5.284;2022-12-18T13:11:38;3.10;99.90
37460;DHT22;23318;50.966;5.284;2022-12-18T13:14:29;3.30;99.90
37460;DHT22;23318;50.966;5.284;2022-12-18T13:20:03;3.20;99.90
37460;DHT22;23318;50.966;5.284;2022-12-18T13:22:42;3.40;99.90
37460;DHT22;23318;50.966;5.284;2022-12-18T13:41:01;2.80;99.90
37460;DHT22;23318;50.966;5.284;2022-12-18T13:43:35;2.70;99.90
37460;DHT22;23318;50.966;5.284;2022-12-18T13:48:31;3.20;99.90
37460;DHT22;23318;50.966;5.284;2022-12-18T13:51:06;3.40;99.90
37460;DHT22;23318;50.966;5.284;2022-12-18T13:53:59;3.50;99.90
37460;DHT22;23318;50.966;5.284;2022-12-18T13:56:26;3.40;99.90
37460;DHT22;23318;50.966;5.284;2022-12-18T14:01:47;3.40;99.90
37460;DHT22;23318;50.966;5.284;2022-12-18T14:06:47;3.20;99.90
37460;DHT22;23318;50.966;5.284;2022-12-18T14:09:16;2.80;99.90
37460;DHT22;23318;50.966;5.284;2022-12-18T14:11:49;2.90;99.90
37460;DHT22;23318;50.966;5.284;2022-12-18T14:14:17;2.90;99.90
37460;DHT22;23318;50.966;5.284;2022-12-18T14:16:43;3.00;99.90
37460;DHT22;23318;50.966;5.284;2022-12-18T14:19:17;3.00;99.90
37460;DHT22;23318;50.966;5.284;2022-12-18T14:21:47;2.90;99.90
37460;DHT22;23318;50.966;5.284;2022-12-18T14:24:18;2.80;99.90
37460;DHT22;23318;50.966;5.284;2022-12-18T14:26:44;2.80;99.90
37460;DHT22;23318;50.966;5.284;2022-12-18T14:29:25;2.80;99.90
37460;DHT22;23318;50.966;5.284;2022-12-18T14:32:23;2.80;99.90
37460;DHT22;23318;50.966;5.284;2022-12-18T14:34:53;2.80;99.90
37460;DHT22;23318;50.966;5.284;2022-12-18T14:37:24;2.80;99.90
37460;DHT22;23318;50.966;5.284;2022-12-18T14:40:01;2.80;99.90
37460;DHT22;23318;50.966;5.284;2022-12-18T14:42:28;2.80;99.90
37460;DHT22;23318;50.966;5.284;2022-12-18T14:47:59;2.50;99.90
37460;DHT22;23318;50.966;5.284;2022-12-18T14:50:25;2.50;99.90
37460;DHT22;23318;50.966;5.284;2022-12-18T14:52:51;2.20;99.90
37460;DHT22;23318;50.966;5.284;2022-12-18T14:55:19;2.40;99.90
37460;DHT22;23318;50.966;5.284;2022-12-18T14:57:46;2.30;99.90
37460;DHT22;23318;50.966;5.284;2022-12-18T15:00:17;2.30;99.90
37460;DHT22;23318;50.966;5.284;2022-12-18T15:02:46;2.10;99.90
37460;DHT22;23318;50.966;5.284;2022-12-18T15:20:59;1.80;99.90
37460;DHT22;23318;50.966;5.284;2022-12-18T15:26:06;1.70;99.90
37460;DHT22;23318;50.966;5.284;2022-12-18T15:36:09;1.90;99.90
37460;DHT22;23318;50.966;5.284;2022-12-18T15:38:35;2.20;99.90
37460;DHT22;23318;50.966;5.284;2022-12-18T15:41:01;2.10;99.90
37460;DHT22;23318;50.966;5.284;2022-12-18T15:43:28;2.30;99.90
37460;DHT22;23318;50.966;5.284;2022-12-18T15:46:11;2.30;99.90
37460;DHT22;23318;50.966;5.284;2022-12-18T15:48:42;2.50;99.90
37460;DHT22;23318;50.966;5.284;2022-12-18T15:51:16;2.50;99.90
37460;DHT22;23318;50.966;5.284;2022-12-18T15:53:42;2.60;99.90
37460;DHT22;23318;50.966;5.284;2022-12-18T15:56:13;2.50;99.90
37460;DHT22;23318;50.966;5.284;2022-12-18T15:58:57;2.40;99.90
37460;DHT22;23318;50.966;5.284;2022-12-18T16:01:25;2.50;99.90
37460;DHT22;23318;50.966;5.284;2022-12-18T16:03:51;2.40;99.90
37460;DHT22;23318;50.966;5.284;2022-12-18T16:06:17;2.30;99.90
37460;DHT22;23318;50.966;5.284;2022-12-18T16:08:42;2.40;99.90
37460;DHT22;23318;50.966;5.284;2022-12-18T16:11:23;2.40;99.90
37460;DHT22;23318;50.966;5.284;2022-12-18T16:14:20;2.40;99.90
37460;DHT22;23318;50.966;5.284;2022-12-18T16:16:48;2.30;99.90
37460;DHT22;23318;50.966;5.284;2022-12-18T16:19:14;2.50;99.90
37460;DHT22;23318;50.966;5.284;2022-12-18T16:21:40;2.40;99.90
37460;DHT22;23318;50.966;5.284;2022-12-18T16:24:19;2.40;99.90
37460;DHT22;23318;50.966;5.284;2022-12-18T16:26:47;2.50;99.90
37460;DHT22;23318;50.966;5.284;2022-12-18T16:29:13;2.60;99.90
37460;DHT22;23318;50.966;5.284;2022-12-18T16:31:40;2.50;99.90
37460;DHT22;23318;50.966;5.284;2022-12-18T16:36:43;2.60;99.90
37460;DHT22;23318;50.966;5.284;2022-12-18T16:39:09;2.80;99.90
37460;DHT22;23318;50.966;5.284;2022-12-18T16:41:34;2.70;99.90
37460;DHT22;23318;50.966;5.284;2022-12-18T16:44:00;2.70;99.90
37460;DHT22;23318;50.966;5.284;2022-12-18T16:46:26;2.60;99.90
37460;DHT22;23318;50.966;5.284;2022-12-18T16:48:52;2.50;99.80
37460;DHT22;23318;50.966;5.284;2022-12-18T16:51:17;2.60;99.80
37460;DHT22;23318;50.966;5.284;2022-12-18T16:53:43;2.50;99.90
37460;DHT22;23318;50.966;5.284;2022-12-18T16:56:09;2.70;99.70
37460;DHT22;23318;50.966;5.284;2022-12-18T16:58:35;2.60;99.60
37460;DHT22;23318;50.966;5.284;2022-12-18T17:01:00;2.30;99.40
37460;DHT22;23318;50.966;5.284;2022-12-18T17:03:26;2.40;99.80
37460;DHT22;23318;50.966;5.284;2022-12-18T17:05:52;2.60;99.80
37460;DHT22;23318;50.966;5.284;2022-12-18T17:08:17;2.60;99.60
37460;DHT22;23318;50.966;5.284;2022-12-18T17:10:43;2.60;99.80
37460;DHT22;23318;50.966;5.284;2022-12-18T17:13:08;2.80;99.60
37460;DHT22;23318;50.966;5.284;2022-12-18T17:15:35;2.80;99.30
37460;DHT22;23318;50.966;5.284;2022-12-18T17:18:01;2.90;99.40
37460;DHT22;23318;50.966;5.284;2022-12-18T17:20:26;3.00;99.10
37460;DHT22;23318;50.966;5.284;2022-12-18T17:22:52;3.10;99.00
37460;DHT22;23318;50.966;5.284;2022-12-18T17:25:18;2.90;99.00
37460;DHT22;23318;50.966;5.284;2022-12-18T17:27:43;3.00;99.20
37460;DHT22;23318;50.966;5.284;2022-12-18T17:30:09;3.00;99.20
37460;DHT22;23318;50.966;5.284;2022-12-18T17:32:35;3.10;98.90
37460;DHT22;23318;50.966;5.284;2022-12-18T17:35:01;3.20;98.90
37460;DHT22;23318;50.966;5.284;2022-12-18T17:37:26;3.30;98.50
37460;DHT22;23318;50.966;5.284;2022-12-18T17:39:52;3.30;98.70
37460;DHT22;23318;50.966;5.284;2022-12-18T17:42:18;3.40;98.80
37460;DHT22;23318;50.966;5.284;2022-12-18T17:44:44;3.10;98.50
37460;DHT22;23318;50.966;5.284;2022-12-18T17:47:10;3.10;98.70
37460;DHT22;23318;50.966;5.284;2022-12-18T17:49:37;3.30;98.90
37460;DHT22;23318;50.966;5.284;2022-12-18T17:52:03;3.20;98.50
37460;DHT22;23318;50.966;5.284;2022-12-18T17:54:28;3.20;98.60
37460;DHT22;23318;50.966;5.284;2022-12-18T17:56:54;3.50;98.50
37460;DHT22;23318;50.966;5.284;2022-12-18T17:59:20;3.60;98.50
37460;DHT22;23318;50.966;5.284;2022-12-18T18:01:47;3.60;98.60
37460;DHT22;23318;50.966;5.284;2022-12-18T18:04:13;3.80;98.70
37460;DHT22;23318;50.966;5.284;2022-12-18T18:06:39;3.50;98.60
37460;DHT22;23318;50.966;5.284;2022-12-18T18:09:06;3.50;98.80